CheckWX is a tool to help pilots better visualize weather data.  It is not intended as a substitute for an official pre-flight weather briefing.

05:18:19 UTC

ESKM METAR
Mora Airport
Sweden
Current

28 mins ago

ESKM 200450Z AUTO 29010KT 9999 NCD M01/M09 Q1005
Observed
Feb-20 @ 04:50 UTC
Wind
  • 290° at 10 KTS
Visibility
10,000+ meters
Flight Rules
VFR
Cloud Levels
  • Clear skies
Temperature
-1°C / 30°F
Dewpoint
-9°C / 16°F
Humidity
55%
Altimeter
29.68" Hg
Pressure
1004.92 hPa
Previous

58 mins ago

ESKM 200420Z AUTO 29011KT 9999 NCD M00/M09 Q1004
Observed
Feb-20 @ 04:20 UTC
Wind
  • 290° at 11 KTS
Visibility
10,000+ meters
Flight Rules
VFR
Cloud Levels
  • Clear skies
Temperature
C / 32°F
Dewpoint
-9°C / 16°F
Humidity
51%
Altimeter
29.65" Hg
Pressure
1003.92 hPa
Previous

1 hour ago

ESKM 200350Z AUTO 30011KT 9999 NCD M00/M09 Q1003
Observed
Feb-20 @ 03:50 UTC
Wind
  • 300° at 11 KTS
Visibility
10,000+ meters
Flight Rules
VFR
Cloud Levels
  • Clear skies
Temperature
C / 32°F
Dewpoint
-9°C / 16°F
Humidity
51%
Altimeter
29.62" Hg
Pressure
1002.92 hPa